Time;durP1;ratioP1;P1;durP2;ratioP2;P2;SDS_P1;SDS_P2;PMS_P1;PMS_P2;Temp;Humidity;BMP_temperature;BMP_pressure;BME280_temperature;BME280_humidity;BME280_pressure;Samples;Min_cycle;Max_cycle;Signal;HPM_P1;HPM_P2
2022/02/27 00:01:27;;;;;;;14.37;6.10;;;;;;;7.02;46.31;99444.69;8342621;28;20244;-64
2022/02/27 00:05:30;;;;;;;11.83;5.40;;;;;;;6.88;46.54;99456.81;8352956;28;20236;-64
2022/02/27 00:09:35;;;;;;;14.43;5.90;;;;;;;6.89;46.62;99465.41;8352777;28;20224;-65
2022/02/27 00:13:38;;;;;;;10.87;6.00;;;;;;;6.83;47.11;99474.91;8353423;28;20263;-64
2022/02/27 00:17:41;;;;;;;10.47;5.57;;;;;;;6.85;46.68;99482.59;8352731;28;20566;-65
2022/02/27 00:21:44;;;;;;;13.20;5.97;;;;;;;6.76;47.05;99486.09;8352698;28;20454;-64
2022/02/27 00:25:50;;;;;;;8.80;5.80;;;;;;;6.76;46.80;99480.06;8352706;28;20236;-64
2022/02/27 00:29:54;;;;;;;14.67;6.50;;;;;;;6.68;46.97;99486.97;8352453;28;20247;-64
2022/02/27 00:33:57;;;;;;;18.77;9.63;;;;;;;6.64;47.18;99487.00;8352379;28;20570;-64
2022/02/27 00:38:02;;;;;;;15.53;9.03;;;;;;;6.64;47.31;99481.84;8351917;28;20239;-64
2022/02/27 00:42:06;;;;;;;17.87;9.00;;;;;;;6.55;47.32;99471.59;8351943;28;20236;-64
2022/02/27 00:46:09;;;;;;;15.27;9.10;;;;;;;6.49;47.29;99469.00;8351821;28;20426;-64
2022/02/27 00:50:13;;;;;;;16.50;8.57;;;;;;;6.47;47.19;99478.47;8342857;28;20335;-65
2022/02/27 00:54:15;;;;;;;19.37;10.30;;;;;;;6.44;47.67;99470.75;8351726;28;20231;-64
2022/02/27 00:58:20;;;;;;;16.40;9.33;;;;;;;6.36;47.91;99464.78;8351421;28;20232;-64
2022/02/27 01:02:23;;;;;;;15.53;8.03;;;;;;;6.37;47.73;99457.06;8351157;28;20232;-64
2022/02/27 01:06:26;;;;;;;12.70;7.93;;;;;;;6.45;47.45;99457.03;8351169;28;20429;-64
2022/02/27 01:10:29;;;;;;;15.27;8.03;;;;;;;6.43;47.78;99451.88;8351263;28;20254;-64
2022/02/27 01:14:34;;;;;;;14.87;7.50;;;;;;;6.36;47.67;99457.06;8350745;28;20224;-65
2022/02/27 01:18:37;;;;;;;11.37;7.23;;;;;;;6.35;47.08;99455.34;8351027;28;20246;-65
2022/02/27 01:22:40;;;;;;;13.70;7.70;;;;;;;6.18;47.59;99450.25;8350709;28;20236;-64
2022/02/27 01:26:43;;;;;;;13.30;7.00;;;;;;;6.17;47.64;99445.97;8350733;28;20258;-65
2022/02/27 01:30:47;;;;;;;17.07;7.87;;;;;;;6.17;48.06;99440.81;8350706;28;20236;-64
2022/02/27 01:34:50;;;;;;;14.93;7.50;;;;;;;6.13;48.03;99444.25;8350300;28;20308;-65
2022/02/27 01:38:53;;;;;;;11.73;6.90;;;;;;;6.14;48.03;99440.84;8350390;28;20431;-65
2022/02/27 01:42:56;;;;;;;13.87;7.47;;;;;;;6.01;47.83;99440.00;8350581;28;20433;-64
2022/02/27 01:47:03;;;;;;;13.83;7.20;;;;;;;5.92;48.42;99437.41;8351650;28;20220;-65
2022/02/27 01:51:06;;;;;;;16.70;7.67;;;;;;;5.93;48.53;99439.16;8351902;28;20206;-65
2022/02/27 01:55:10;;;;;;;13.17;7.30;;;;;;;5.83;48.89;99431.44;8351818;28;20204;-65
2022/02/27 01:59:16;;;;;;;11.37;6.57;;;;;;;5.80;48.83;99428.03;8351562;28;20224;-65
2022/02/27 02:03:21;;;;;;;12.07;6.60;;;;;;;5.82;48.27;99428.88;8348950;28;20232;-65
2022/02/27 02:07:24;;;;;;;15.20;7.73;;;;;;;5.78;48.72;99429.75;8349049;28;20232;-65
2022/02/27 02:11:28;;;;;;;13.60;7.33;;;;;;;5.71;49.29;99436.59;8348503;28;20235;-64
2022/02/27 02:15:31;;;;;;;15.43;7.70;;;;;;;5.76;49.00;99431.47;8348403;28;20514;-66
2022/02/27 02:19:36;;;;;;;15.07;7.30;;;;;;;5.71;48.65;99426.31;8348786;28;20423;-65
2022/02/27 02:23:40;;;;;;;14.33;8.17;;;;;;;5.70;48.86;99419.47;8348558;28;20247;-65
2022/02/27 02:27:43;;;;;;;14.73;8.10;;;;;;;5.50;48.84;99414.34;8348357;28;20243;-64
2022/02/27 02:31:47;;;;;;;16.90;6.73;;;;;;;5.61;48.48;99420.31;8348569;28;20321;-64
2022/02/27 02:35:50;;;;;;;15.97;7.67;;;;;;;5.55;48.63;99412.63;8348394;28;20236;-64
2022/02/27 02:39:54;;;;;;;13.03;7.50;;;;;;;5.52;48.54;99415.22;8348342;28;20242;-65
2022/02/27 02:43:58;;;;;;;11.17;7.17;;;;;;;5.44;48.95;99409.22;8348132;28;20236;-65
2022/02/27 02:48:01;;;;;;;14.07;7.00;;;;;;;5.44;48.69;99414.34;8348338;28;20543;-65
2022/02/27 02:52:04;;;;;;;14.67;7.10;;;;;;;5.47;48.91;99404.09;8348425;28;20242;-64
2022/02/27 02:56:10;;;;;;;15.70;7.23;;;;;;;5.43;48.57;99398.09;8347870;28;20235;-65
2022/02/27 03:00:14;;;;;;;12.30;6.87;;;;;;;5.42;48.80;99398.94;8347863;28;20228;-65
2022/02/27 03:04:16;;;;;;;14.83;6.90;;;;;;;5.40;48.94;99405.78;8347983;28;20232;-64
2022/02/27 03:08:19;;;;;;;14.30;7.43;;;;;;;5.36;49.11;99403.22;8347765;28;20419;-65
2022/02/27 03:12:24;;;;;;;16.40;6.93;;;;;;;5.37;48.63;99390.38;8347754;28;20239;-65
2022/02/27 03:16:27;;;;;;;10.67;7.00;;;;;;;5.41;48.35;99391.25;8348029;28;20227;-65
2022/02/27 03:20:30;;;;;;;12.60;7.00;;;;;;;5.17;48.59;99389.53;8347931;28;20238;-65
2022/02/27 03:24:33;;;;;;;12.77;6.97;;;;;;;5.29;48.83;99382.69;8349308;28;20231;-65
2022/02/27 03:28:37;;;;;;;12.47;6.33;;;;;;;5.20;49.08;99390.38;8354473;28;20240;-65
2022/02/27 03:32:46;;;;;;;12.73;6.90;;;;;;;5.15;49.20;99391.25;8354006;28;20240;-65
2022/02/27 03:36:49;;;;;;;13.10;7.10;;;;;;;5.18;48.77;99389.53;8354198;28;20231;-65
2022/02/27 03:40:52;;;;;;;13.87;6.80;;;;;;;5.08;48.83;99391.25;8353790;28;20242;-65
2022/02/27 03:44:57;;;;;;;13.97;6.73;;;;;;;4.97;49.55;99392.94;8353794;28;20569;-64
2022/02/27 03:49:00;;;;;;;15.57;6.73;;;;;;;5.09;49.22;99390.38;8353531;28;20235;-64
2022/02/27 03:53:03;;;;;;;10.43;6.30;;;;;;;5.02;49.37;99387.81;8353625;28;20243;-65
2022/02/27 03:57:06;;;;;;;11.40;6.67;;;;;;;4.95;49.53;99391.22;8353469;28;20227;-65
2022/02/27 04:01:10;;;;;;;12.83;7.20;;;;;;;5.03;49.18;99402.38;8353536;28;20224;-65
2022/02/27 04:05:14;;;;;;;10.97;6.70;;;;;;;4.99;49.12;99400.63;8353335;28;20447;-64
2022/02/27 04:09:17;;;;;;;13.23;7.43;;;;;;;4.98;49.19;99402.34;8353025;28;20236;-64
2022/02/27 04:13:20;;;;;;;12.47;7.07;;;;;;;4.95;48.72;99411.75;8353395;28;20543;-64
2022/02/27 04:17:24;;;;;;;11.50;6.77;;;;;;;4.96;48.37;99413.47;8353153;28;20224;-65
2022/02/27 04:21:27;;;;;;;11.93;6.57;;;;;;;4.91;48.85;99400.63;8352755;28;20235;-65
2022/02/27 04:25:30;;;;;;;13.20;6.87;;;;;;;4.94;48.84;99405.78;8352492;28;20239;-65
2022/02/27 04:29:33;;;;;;;13.27;6.60;;;;;;;4.92;48.94;99398.94;8351908;28;20224;-65
2022/02/27 04:33:37;;;;;;;13.93;7.40;;;;;;;4.87;49.20;99407.50;8352385;28;20235;-66
2022/02/27 04:37:40;;;;;;;11.30;6.80;;;;;;;5.03;48.43;99405.78;8351552;28;20232;-65
2022/02/27 04:41:43;;;;;;;15.57;7.30;;;;;;;4.90;48.60;99417.75;8352349;28;20232;-65
2022/02/27 04:45:46;;;;;;;11.83;6.93;;;;;;;4.86;49.13;99410.88;8352052;28;20240;-65
2022/02/27 04:49:51;;;;;;;13.90;7.00;;;;;;;4.98;48.91;99414.34;8351909;28;20240;-64
2022/02/27 04:53:54;;;;;;;11.17;7.03;;;;;;;4.93;48.86;99418.59;8351669;28;20235;-65
2022/02/27 04:57:57;;;;;;;15.97;7.90;;;;;;;4.86;49.04;99418.59;8351724;28;20238;-65
2022/02/27 05:01:59;;;;;;;13.37;6.93;;;;;;;4.87;49.04;99420.31;8351564;28;20539;-64
2022/02/27 05:06:04;;;;;;;13.23;6.93;;;;;;;4.81;48.72;99422.00;8350887;28;20247;-64
2022/02/27 05:10:09;;;;;;;14.43;7.23;;;;;;;4.66;48.64;99428.81;8351214;28;20417;-64
2022/02/27 05:14:15;;;;;;;11.10;6.83;;;;;;;4.76;48.92;99436.53;8351118;28;20236;-64
2022/02/27 05:18:18;;;;;;;12.40;7.07;;;;;;;4.80;49.27;99431.44;8350890;28;20236;-64
2022/02/27 05:22:22;;;;;;;15.37;7.50;;;;;;;4.78;49.14;99432.25;8350688;28;20228;-64
2022/02/27 05:26:25;;;;;;;12.23;7.37;;;;;;;4.80;49.44;99438.28;8350432;28;20243;-65
2022/02/27 05:30:28;;;;;;;15.20;7.53;;;;;;;4.83;49.54;99430.56;8350723;28;20231;-64
2022/02/27 05:34:31;;;;;;;16.57;7.50;;;;;;;4.81;49.39;99445.09;8341928;28;20231;-66
2022/02/27 05:38:35;;;;;;;14.47;7.20;;;;;;;4.87;49.16;99448.56;8350166;28;20228;-65
2022/02/27 05:42:38;;;;;;;16.47;7.47;;;;;;;4.82;49.68;99462.22;8350029;28;20432;-65
2022/02/27 05:46:41;;;;;;;14.83;7.40;;;;;;;4.92;49.39;99468.25;8347525;28;20239;-64
2022/02/27 05:50:44;;;;;;;18.67;7.50;;;;;;;4.88;49.64;99468.22;8349684;28;20232;-64
2022/02/27 05:54:49;;;;;;;13.13;6.67;;;;;;;4.76;49.43;99468.22;8349473;28;20311;-65
2022/02/27 05:58:52;;;;;;;16.03;7.23;;;;;;;4.67;49.53;99471.59;8349468;28;20235;-65
2022/02/27 06:02:56;;;;;;;26.77;18.10;;;;;;;4.72;49.58;99479.28;8349085;28;20240;-65
2022/02/27 06:06:59;;;;;;;21.60;15.93;;;;;;;4.81;48.99;99478.47;8348914;28;20238;-64
2022/02/27 06:11:04;;;;;;;17.57;11.03;;;;;;;4.79;48.73;99478.47;8349189;28;20223;-64
2022/02/27 06:15:09;;;;;;;15.10;8.73;;;;;;;4.72;48.86;99484.41;8348743;28;20427;-65
2022/02/27 06:19:12;;;;;;;12.63;7.63;;;;;;;4.75;49.21;99499.00;8348837;28;20531;-64
2022/02/27 06:23:15;;;;;;;14.97;7.67;;;;;;;4.63;49.83;99498.09;8348475;28;20265;-65
2022/02/27 06:27:21;;;;;;;11.90;7.10;;;;;;;4.77;49.62;99499.84;8348664;28;20301;-64
2022/02/27 06:31:24;;;;;;;12.83;7.53;;;;;;;4.83;50.17;99494.72;8348690;28;20629;-64
2022/02/27 06:35:29;;;;;;;15.20;7.60;;;;;;;4.86;49.90;99497.31;8340245;28;20224;-64
2022/02/27 06:39:32;;;;;;;12.50;7.30;;;;;;;4.93;49.95;99506.75;8338833;28;20235;-67
2022/02/27 06:43:37;;;;;;;16.17;7.70;;;;;;;5.52;48.38;99512.88;8347161;28;20427;-65
2022/02/27 06:47:41;;;;;;;18.37;10.67;;;;;;;5.83;48.08;99512.88;8347193;28;20244;-65
2022/02/27 06:51:44;;;;;;;12.83;7.63;;;;;;;6.40;46.38;99513.66;8344745;28;20232;-65
2022/02/27 06:55:49;;;;;;;12.10;7.13;;;;;;;6.74;45.88;99510.97;8347200;28;20228;-65
2022/02/27 06:59:53;;;;;;;17.40;7.67;;;;;;;7.04;45.39;99501.38;8346808;28;20228;-64
2022/02/27 07:03:56;;;;;;;11.77;6.83;;;;;;;6.89;45.72;99509.19;8346894;28;20232;-64
2022/02/27 07:08:00;;;;;;;10.87;6.73;;;;;;;7.16;45.75;99513.31;8346703;28;20231;-65
2022/02/27 07:12:03;;;;;;;11.33;6.83;;;;;;;7.18;45.38;99515.03;8346784;28;20227;-65
2022/02/27 07:16:10;;;;;;;23.63;19.13;;;;;;;7.24;45.17;99520.16;8345646;28;20235;-64
2022/02/27 07:20:13;;;;;;;14.20;10.03;;;;;;;7.55;44.61;99525.09;8347863;28;20228;-65
2022/02/27 07:24:18;;;;;;;14.63;10.17;;;;;;;7.73;44.55;99530.97;8347675;28;20232;-65
2022/02/27 07:28:20;;;;;;;17.40;10.53;;;;;;;8.03;44.31;99542.78;8347106;28;20243;-64
2022/02/27 07:32:25;;;;;;;16.17;9.43;;;;;;;8.40;43.66;99540.69;8347426;28;20239;-64
2022/02/27 07:36:29;;;;;;;13.47;7.93;;;;;;;8.67;43.58;99536.13;8346404;28;20401;-65
2022/02/27 07:40:33;;;;;;;13.30;7.17;;;;;;;8.94;42.88;99544.44;8346307;28;20303;-65
2022/02/27 07:44:36;;;;;;;15.07;7.17;;;;;;;9.15;42.95;99543.28;8347357;28;20236;-65
2022/02/27 07:48:40;;;;;;;12.07;6.70;;;;;;;9.20;42.50;99542.34;8347109;28;20408;-65
2022/02/27 07:52:46;;;;;;;16.00;7.60;;;;;;;9.26;41.65;99541.41;8347655;28;20560;-65
2022/02/27 07:56:49;;;;;;;14.93;7.57;;;;;;;9.66;41.92;99538.25;8347195;28;20232;-65
2022/02/27 08:00:55;;;;;;;12.67;7.20;;;;;;;9.24;41.82;99548.34;8347049;28;20232;-65
2022/02/27 08:05:00;;;;;;;14.17;7.20;;;;;;;9.39;42.54;99547.28;8347208;28;20240;-65
2022/02/27 08:09:05;;;;;;;14.77;7.53;;;;;;;8.97;42.91;99540.09;8347160;28;20236;-66
2022/02/27 08:13:08;;;;;;;14.37;8.07;;;;;;;9.23;42.00;99536.28;8352803;28;20534;-65
2022/02/27 08:17:11;;;;;;;14.17;7.20;;;;;;;9.13;42.69;99535.56;8352727;28;20561;-66
2022/02/27 08:21:17;;;;;;;12.70;6.93;;;;;;;9.19;42.51;99542.38;8352667;28;20228;-65
2022/02/27 08:25:19;;;;;;;10.17;5.87;;;;;;;9.37;42.72;99536.97;8352534;28;20236;-65
2022/02/27 08:29:23;;;;;;;11.17;5.70;;;;;;;9.12;41.65;99541.63;8352301;28;20232;-65
2022/02/27 08:33:26;;;;;;;11.77;5.27;;;;;;;9.23;41.56;99554.38;8352470;28;20227;-65
2022/02/27 08:37:30;;;;;;;8.17;4.70;;;;;;;8.76;40.75;99546.38;8352282;28;20231;-65
2022/02/27 08:41:33;;;;;;;13.73;4.97;;;;;;;9.31;40.44;99549.97;8351563;28;20227;-65
2022/02/27 08:45:39;;;;;;;9.27;4.87;;;;;;;9.52;39.44;99550.53;8350315;28;20231;-66
2022/02/27 08:49:41;;;;;;;9.73;4.50;;;;;;;8.88;40.44;99558.28;8345565;28;20397;-66
2022/02/27 08:53:46;;;;;;;10.97;4.63;;;;;;;9.59;38.72;99550.44;8350436;28;20255;-65
2022/02/27 08:57:49;;;;;;;7.60;4.20;;;;;;;8.86;38.46;99552.28;8350820;28;20235;-65
2022/02/27 09:01:52;;;;;;;9.83;4.10;;;;;;;8.53;37.80;99548.34;8350774;28;20550;-65
2022/02/27 09:05:56;;;;;;;7.03;4.30;;;;;;;8.67;37.43;99550.78;8347883;28;20660;-65
2022/02/27 09:10:00;;;;;;;14.07;8.03;;;;;;;9.70;36.21;99549.41;8348052;28;20224;-66
2022/02/27 09:14:03;;;;;;;4.50;2.80;;;;;;;8.62;36.13;99556.00;8350565;28;20224;-65
2022/02/27 09:18:07;;;;;;;6.20;3.60;;;;;;;8.10;36.20;99551.34;8350385;28;20224;-65
2022/02/27 09:22:10;;;;;;;7.67;3.70;;;;;;;8.18;36.21;99552.94;8349984;28;20239;-65
2022/02/27 09:26:14;;;;;;;7.87;4.53;;;;;;;8.17;35.22;99551.25;8349580;28;20228;-66
2022/02/27 09:30:31;;;;;;;8.33;4.77;;;;;;;8.18;36.15;99539.19;8348749;28;20220;-66
2022/02/27 09:34:35;;;;;;;7.20;5.47;;;;;;;8.83;35.07;99543.72;8349045;28;20228;-66
2022/02/27 09:38:38;;;;;;;5.70;4.33;;;;;;;9.11;34.31;99537.31;8350007;28;20233;-66
2022/02/27 09:42:42;;;;;;;7.20;5.83;;;;;;;9.48;31.95;99534.22;8350570;28;20286;-65
2022/02/27 09:46:48;;;;;;;5.30;3.17;;;;;;;8.73;33.90;99542.97;8349982;28;20240;-66
2022/02/27 09:50:52;;;;;;;6.57;3.47;;;;;;;8.39;33.93;99566.53;8349542;28;20247;-65
2022/02/27 09:54:54;;;;;;;4.97;3.13;;;;;;;9.03;33.19;99541.72;8349492;28;20228;-65
2022/02/27 09:58:59;;;;;;;7.23;5.37;;;;;;;9.07;32.69;99530.47;8349714;28;20539;-65
2022/02/27 10:03:13;;;;;;;7.23;3.13;;;;;;;9.60;32.58;99528.00;8348368;28;20235;-65
2022/02/27 10:07:17;;;;;;;6.20;3.97;;;;;;;9.13;32.70;99538.16;8349322;28;20232;-65
2022/02/27 10:11:21;;;;;;;6.33;3.60;;;;;;;8.76;33.28;99541.19;8346257;28;20236;-67
2022/02/27 10:15:29;;;;;;;5.47;2.90;;;;;;;9.60;32.28;99546.13;8349169;28;20239;-66
2022/02/27 10:19:36;;;;;;;5.80;3.40;;;;;;;9.41;32.73;99547.28;8349124;28;20224;-65
2022/02/27 10:23:39;;;;;;;8.67;4.70;;;;;;;10.04;31.58;99530.75;8348646;28;20232;-66
2022/02/27 10:27:44;;;;;;;6.47;3.07;;;;;;;10.12;31.77;99542.66;8348598;28;20561;-66
2022/02/27 10:31:50;;;;;;;7.73;3.43;;;;;;;9.81;32.35;99534.56;8348702;28;20236;-66
2022/02/27 10:35:54;;;;;;;7.37;3.50;;;;;;;9.34;33.08;99538.72;8347728;28;20610;-66
2022/02/27 10:39:59;;;;;;;6.63;3.50;;;;;;;9.57;32.62;99533.22;8348557;28;20238;-66
2022/02/27 10:44:01;;;;;;;4.37;2.93;;;;;;;11.70;29.95;99527.38;8348279;28;20228;-66
2022/02/27 10:48:07;;;;;;;6.67;3.57;;;;;;;9.76;32.04;99518.25;8346997;28;20228;-66
2022/02/27 10:52:13;;;;;;;6.23;3.37;;;;;;;10.29;32.40;99518.22;8346789;28;20220;-66
2022/02/27 10:56:18;;;;;;;5.97;3.30;;;;;;;10.02;32.17;99520.41;8342820;28;20220;-66
2022/02/27 11:00:27;;;;;;;7.47;3.60;;;;;;;9.91;33.05;99514.56;8340019;28;20547;-66
2022/02/27 11:04:33;;;;;;;7.10;4.23;;;;;;;10.84;31.70;99511.13;8343067;28;20553;-66
2022/02/27 11:08:36;;;;;;;5.27;3.33;;;;;;;10.75;31.59;99510.41;8346780;28;20228;-66
2022/02/27 11:12:40;;;;;;;6.20;3.77;;;;;;;10.45;31.54;99505.84;8346286;28;20228;-66
2022/02/27 11:16:43;;;;;;;6.37;3.83;;;;;;;10.03;32.72;99493.63;8346026;28;20243;-67
2022/02/27 11:20:50;;;;;;;5.33;3.37;;;;;;;10.17;31.99;99499.44;8347243;28;20252;-64
2022/02/27 11:24:53;;;;;;;4.80;3.40;;;;;;;9.92;32.33;99490.41;8346927;28;20231;-67
2022/02/27 11:28:56;;;;;;;4.93;3.23;;;;;;;11.79;29.72;99487.38;8339722;28;20240;-66
2022/02/27 11:33:05;;;;;;;6.07;3.90;;;;;;;10.47;32.01;99489.41;8346672;28;20236;-66
2022/02/27 11:37:09;;;;;;;6.30;3.60;;;;;;;10.29;31.76;99477.63;8347313;28;20247;-66
2022/02/27 11:41:13;;;;;;;7.63;3.77;;;;;;;9.94;32.61;99481.72;8346944;28;20236;-64
2022/02/27 11:45:21;;;;;;;5.60;3.63;;;;;;;10.41;31.26;99473.13;8348779;28;20242;-64
2022/02/27 11:49:25;;;;;;;8.50;4.37;;;;;;;10.00;32.69;99472.16;8353531;28;20238;-64
2022/02/27 11:53:47;;;;;;;5.23;3.70;;;;;;;10.50;31.86;99454.81;8353616;28;20338;-64
2022/02/27 11:57:50;;;;;;;5.67;3.50;;;;;;;10.11;32.40;99462.44;8353198;28;20232;-66
2022/02/27 12:01:56;;;;;;;5.20;3.70;;;;;;;9.60;32.66;99458.16;8353346;28;20228;-66
2022/02/27 12:06:01;;;;;;;5.73;4.13;;;;;;;9.65;32.42;99447.72;8353206;28;20239;-63
2022/02/27 12:10:05;;;;;;;6.50;3.90;;;;;;;10.85;31.80;99450.63;8353377;28;20283;-64
2022/02/27 12:14:09;;;;;;;7.90;4.70;;;;;;;10.30;31.71;99440.53;8353069;28;20424;-64
2022/02/27 12:18:21;;;;;;;6.63;3.83;;;;;;;10.40;30.67;99436.03;8352808;28;20232;-67
2022/02/27 12:22:44;;;;;;;4.93;3.60;;;;;;;9.94;31.82;99431.72;8353049;28;20242;-64
2022/02/27 12:26:49;;;;;;;6.27;4.13;;;;;;;10.92;30.47;99426.28;8352601;28;20235;-64
2022/02/27 12:30:53;;;;;;;5.50;3.70;;;;;;;11.35;30.05;99430.50;8352531;28;20235;-64
2022/02/27 12:34:57;;;;;;;6.77;3.40;;;;;;;10.07;31.63;99429.72;8352170;28;20228;-64
2022/02/27 12:39:04;;;;;;;6.07;3.50;;;;;;;9.56;32.43;99421.16;8352608;28;20531;-64
2022/02/27 12:43:11;;;;;;;5.20;3.83;;;;;;;10.35;31.38;99420.56;8352334;28;20323;-64
2022/02/27 12:47:15;;;;;;;6.87;3.73;;;;;;;10.48;30.34;99412.56;8351886;28;20232;-64
2022/02/27 12:51:21;;;;;;;5.70;3.83;;;;;;;10.42;31.18;99412.69;8351057;28;20425;-65
2022/02/27 12:55:24;;;;;;;5.70;3.30;;;;;;;10.77;30.30;99414.53;8350370;28;20406;-65
2022/02/27 12:59:29;;;;;;;3.67;2.90;;;;;;;11.92;29.76;99413.50;8350255;28;20246;-64
2022/02/27 13:03:32;;;;;;;6.17;3.57;;;;;;;11.64;29.43;99413.34;8342257;28;20224;-61
2022/02/27 13:07:35;;;;;;;4.97;3.43;;;;;;;11.77;29.20;99400.91;8351109;28;20307;-61
2022/02/27 13:11:39;;;;;;;6.13;4.17;;;;;;;11.80;29.08;99411.19;8351234;28;20228;-61
2022/02/27 13:15:50;;;;;;;6.57;3.70;;;;;;;11.78;28.49;99406.03;8351075;28;20232;-63
2022/02/27 13:19:54;;;;;;;5.73;3.30;;;;;;;12.13;27.82;99394.75;8351137;28;20228;-65
2022/02/27 13:23:58;;;;;;;6.63;3.17;;;;;;;12.55;27.66;99392.72;8351231;28;20243;-65
2022/02/27 13:28:01;;;;;;;6.23;3.80;;;;;;;11.72;29.25;99401.00;8349864;28;20238;-65
2022/02/27 13:32:06;;;;;;;6.47;3.47;;;;;;;11.09;29.85;99398.22;8349821;28;20228;-65
2022/02/27 13:36:10;;;;;;;5.77;3.47;;;;;;;12.14;28.38;99387.78;8349480;28;20236;-64
2022/02/27 13:40:18;;;;;;;7.27;3.27;;;;;;;11.58;28.81;99390.16;8350485;28;20223;-64
2022/02/27 13:44:27;;;;;;;5.10;3.17;;;;;;;11.85;29.45;99385.97;8350513;28;20231;-64
2022/02/27 13:48:33;;;;;;;6.47;2.90;;;;;;;12.63;28.18;99380.31;8350327;28;20248;-64
2022/02/27 13:52:36;;;;;;;5.53;3.07;;;;;;;12.74;27.92;99380.84;8349918;28;20417;-65
2022/02/27 13:56:39;;;;;;;3.93;2.70;;;;;;;12.43;27.54;99384.38;8350354;28;20526;-65
2022/02/27 14:00:51;;;;;;;5.20;3.30;;;;;;;11.06;28.90;99385.38;8350102;28;20429;-64
2022/02/27 14:05:16;;;;;;;6.87;3.27;;;;;;;10.45;30.18;99386.72;8350432;28;20236;-64
2022/02/27 14:09:20;;;;;;;4.30;3.20;;;;;;;11.10;29.39;99394.78;8348853;28;20233;-64
2022/02/27 14:13:25;;;;;;;5.17;3.00;;;;;;;10.99;29.32;99381.19;8349407;28;20235;-64
2022/02/27 14:17:28;;;;;;;6.57;3.60;;;;;;;10.87;29.04;99371.09;8349541;28;20232;-64
2022/02/27 14:21:35;;;;;;;4.67;3.30;;;;;;;11.19;29.14;99377.28;8348679;28;20223;-62
2022/02/27 14:25:40;;;;;;;5.87;3.70;;;;;;;10.52;29.13;99370.16;8348586;28;20398;-62
2022/02/27 14:29:43;;;;;;;4.20;3.30;;;;;;;10.48;29.67;99361.59;8348494;28;20243;-62
2022/02/27 14:33:46;;;;;;;4.60;3.43;;;;;;;11.23;28.88;99368.53;8348798;28;20235;-62
2022/02/27 14:37:51;;;;;;;4.93;3.70;;;;;;;11.09;28.96;99367.13;8340220;28;20236;-62
2022/02/27 14:41:54;;;;;;;4.33;3.37;;;;;;;10.24;29.51;99364.69;8348139;28;20238;-62
2022/02/27 14:45:57;;;;;;;3.93;3.43;;;;;;;10.31;29.31;99361.13;8348195;28;20412;-62
2022/02/27 14:50:00;;;;;;;4.63;3.53;;;;;;;10.43;29.25;99365.19;8347904;28;20241;-62
2022/02/27 14:54:05;;;;;;;5.87;3.30;;;;;;;10.02;29.75;99365.13;8348475;28;20228;-62
2022/02/27 14:58:09;;;;;;;4.90;3.60;;;;;;;9.52;30.36;99365.19;8347895;28;20232;-62
2022/02/27 15:02:12;;;;;;;5.37;3.90;;;;;;;10.29;29.63;99363.69;8351000;28;20231;-62
2022/02/27 15:06:15;;;;;;;5.53;3.97;;;;;;;10.93;29.42;99358.03;8350534;28;20232;-62
2022/02/27 15:10:21;;;;;;;6.20;4.20;;;;;;;10.61;29.13;99363.94;8347797;28;20250;-62
2022/02/27 15:14:24;;;;;;;5.77;3.80;;;;;;;11.02;28.78;99369.91;8347682;28;20251;-62
2022/02/27 15:18:27;;;;;;;5.70;3.70;;;;;;;10.72;29.42;99362.81;8347882;28;20231;-64
2022/02/27 15:22:31;;;;;;;4.63;3.80;;;;;;;10.26;29.18;99357.72;8348135;28;20244;-64
2022/02/27 15:26:38;;;;;;;7.17;4.67;;;;;;;10.03;30.86;99363.38;8347078;28;20253;-64
2022/02/27 15:30:41;;;;;;;6.03;4.40;;;;;;;10.10;30.74;99364.97;8347403;28;20407;-64
2022/02/27 15:34:44;;;;;;;5.67;4.43;;;;;;;9.81;30.81;99371.56;8347451;28;20543;-64
2022/02/27 15:38:48;;;;;;;4.07;3.53;;;;;;;10.13;30.29;99375.28;8347518;28;20246;-64
2022/02/27 15:42:52;;;;;;;6.37;3.77;;;;;;;9.31;30.65;99370.72;8347008;28;20564;-64
2022/02/27 15:46:55;;;;;;;5.40;3.90;;;;;;;9.05;31.42;99366.84;8346523;28;20239;-64
2022/02/27 15:51:00;;;;;;;5.30;3.80;;;;;;;8.98;31.18;99363.47;8346674;28;20232;-64
2022/02/27 15:55:03;;;;;;;5.47;3.97;;;;;;;8.46;31.99;99361.69;8346961;28;20231;-64
2022/02/27 15:59:08;;;;;;;6.23;4.00;;;;;;;8.63;32.17;99358.00;8346680;28;20238;-64
2022/02/27 16:03:11;;;;;;;7.23;4.60;;;;;;;8.27;33.04;99365.34;8346720;28;20234;-64
2022/02/27 16:07:14;;;;;;;6.20;4.53;;;;;;;8.41;33.57;99351.41;8346744;28;20236;-64
2022/02/27 16:11:17;;;;;;;10.20;7.50;;;;;;;8.46;33.31;99358.25;8346818;28;20243;-64
2022/02/27 16:15:22;;;;;;;6.13;4.87;;;;;;;8.58;33.29;99355.47;8346743;28;20236;-64
2022/02/27 16:19:26;;;;;;;8.43;6.67;;;;;;;8.61;33.44;99356.28;8346905;28;20228;-65
2022/02/27 16:23:29;;;;;;;8.90;6.90;;;;;;;8.60;33.98;99359.78;8346843;28;20553;-64
2022/02/27 16:27:34;;;;;;;8.80;6.07;;;;;;;8.44;34.60;99360.00;8346167;28;20228;-64
2022/02/27 16:31:39;;;;;;;11.73;7.83;;;;;;;8.61;34.65;99368.38;8339943;28;20232;-64
2022/02/27 16:35:43;;;;;;;13.27;9.30;;;;;;;8.58;34.27;99368.38;8382768;28;20420;-64
2022/02/27 16:39:46;;;;;;;13.93;8.67;;;;;;;8.67;34.08;99367.41;8352332;28;20255;-64
2022/02/27 16:43:50;;;;;;;11.97;8.10;;;;;;;8.52;34.11;99364.16;8351840;28;20424;-64
2022/02/27 16:47:54;;;;;;;16.10;9.60;;;;;;;8.69;33.90;99378.59;8351556;28;20232;-65
2022/02/27 16:51:58;;;;;;;14.17;9.80;;;;;;;8.56;34.18;99380.47;8351473;28;20270;-65
2022/02/27 16:56:02;;;;;;;15.77;9.40;;;;;;;8.39;34.28;99373.75;8350938;28;20228;-65
2022/02/27 17:00:08;;;;;;;16.93;10.63;;;;;;;8.82;34.30;99379.28;8351381;28;20238;-65
2022/02/27 17:04:12;;;;;;;17.93;9.80;;;;;;;8.46;34.85;99389.22;8350885;28;20228;-65
2022/02/27 17:08:15;;;;;;;21.87;12.27;;;;;;;7.85;35.36;99396.78;8351211;28;20531;-65
2022/02/27 17:12:18;;;;;;;16.13;9.83;;;;;;;7.91;34.73;99407.03;8351666;28;20443;-69
2022/02/27 17:16:22;;;;;;;18.80;10.43;;;;;;;7.95;35.11;99400.97;8351393;28;20236;-64
2022/02/27 17:20:26;;;;;;;19.80;12.20;;;;;;;7.53;35.55;99404.81;8350785;28;20231;-64
2022/02/27 17:24:30;;;;;;;15.83;10.57;;;;;;;7.81;35.31;99413.16;8351024;28;20235;-66
2022/02/27 17:28:33;;;;;;;14.53;10.80;;;;;;;7.98;35.06;99410.41;8350280;28;20227;-65
2022/02/27 17:32:36;;;;;;;12.63;7.53;;;;;;;7.82;35.05;99402.84;8350622;28;20236;-67
2022/02/27 17:36:41;;;;;;;10.03;7.67;;;;;;;7.86;35.53;99397.63;8350211;28;20228;-65
2022/02/27 17:40:44;;;;;;;9.83;8.47;;;;;;;7.60;35.67;99402.19;8350082;28;20550;-65
2022/02/27 17:44:47;;;;;;;7.87;7.03;;;;;;;8.09;35.01;99408.56;8347914;28;20247;-65
2022/02/27 17:48:50;;;;;;;9.03;7.07;;;;;;;7.97;35.23;99408.69;8349664;28;20290;-65
2022/02/27 17:52:57;;;;;;;8.33;6.90;;;;;;;8.36;34.94;99404.78;8349735;28;20231;-64
2022/02/27 17:57:00;;;;;;;9.97;5.90;;;;;;;7.96;35.47;99410.41;8348877;28;20232;-64
2022/02/27 18:01:04;;;;;;;7.20;5.53;;;;;;;8.13;35.17;99399.91;8349844;28;20519;-65
2022/02/27 18:05:07;;;;;;;9.00;6.87;;;;;;;7.53;36.34;99405.69;8347129;28;20228;-65
2022/02/27 18:09:12;;;;;;;9.50;6.27;;;;;;;8.21;35.43;99397.25;8349373;28;20426;-65
2022/02/27 18:13:15;;;;;;;8.40;6.90;;;;;;;8.46;35.19;99402.13;8349340;28;20239;-64
2022/02/27 18:17:18;;;;;;;9.23;7.37;;;;;;;8.54;35.81;99403.72;8349025;28;20239;-64
2022/02/27 18:21:23;;;;;;;8.10;6.90;;;;;;;8.74;35.58;99406.06;8349493;28;20354;-65
2022/02/27 18:25:29;;;;;;;9.63;7.53;;;;;;;8.59;36.18;99407.09;8349247;28;20232;-64
2022/02/27 18:29:32;;;;;;;16.20;12.80;;;;;;;8.56;36.12;99409.72;8348741;28;20236;-65
2022/02/27 18:33:37;;;;;;;10.97;9.43;;;;;;;8.58;37.02;99407.13;8349010;28;20243;-65
2022/02/27 18:37:40;;;;;;;12.47;8.03;;;;;;;8.61;36.34;99404.50;8348875;28;20250;-65
2022/02/27 18:41:46;;;;;;;11.60;10.17;;;;;;;8.60;36.18;99407.97;8348707;28;20435;-64
2022/02/27 18:45:49;;;;;;;12.13;9.73;;;;;;;8.59;36.38;99408.84;8348662;28;20238;-64
2022/02/27 18:49:52;;;;;;;12.53;10.60;;;;;;;8.58;36.60;99407.13;8348355;28;20232;-64
2022/02/27 18:53:56;;;;;;;14.80;10.30;;;;;;;8.54;36.92;99408.88;8348333;28;20232;-64
2022/02/27 18:58:01;;;;;;;13.03;10.27;;;;;;;8.51;36.27;99403.78;8348052;28;20239;-64
2022/02/27 19:02:04;;;;;;;11.90;8.87;;;;;;;8.49;36.60;99410.69;8347931;28;20224;-64
2022/02/27 19:06:07;;;;;;;13.77;11.30;;;;;;;8.39;36.86;99404.75;8347785;28;20239;-64
2022/02/27 19:10:11;;;;;;;15.87;12.93;;;;;;;8.43;36.96;99407.31;8347660;28;20235;-64